Terminal Aerodrome Forecast
Issued by NWS Northern Indiana

Home | Current Version | Previous Version | Text Only | Print | Product List | Glossary On
Versions: 1 2 3 4 5 6 7 8 9 10 11 12 13 14 15 16
000
FTUS43 KIWX 020500
TAFFWA
TAF
KFWA 020520Z 0206/0306 35005KT P6SM VCSH SCT050 BKN100
     FM020800 VRB02KT P6SM BKN100
      TEMPO 0209/0213 4SM BR
     FM021800 36005KT P6SM VCTS BKN050CB
     FM022300 35003KT P6SM SCT100=

USA.gov is the U.S. government's official web portal to all federal, state and local government web resources and services.